createdAt,value
2018-10-17T01:55:55.434Z,53.50
2018-10-17T05:56:49.477Z,54.80
2018-10-17T06:06:09.225Z,56.80
2018-10-17T07:15:04.342Z,57.00
2018-10-17T07:17:35.172Z,58.30
2018-10-17T07:20:08.517Z,58.30
2018-10-17T07:22:42.497Z,58.30
2018-10-17T07:25:18.111Z,58.50
2018-10-17T07:27:54.229Z,58.70
2018-10-17T07:30:37.847Z,58.80
2018-10-17T07:33:09.889Z,58.90
2018-10-17T07:35:47.279Z,59.10
2018-10-17T07:38:21.074Z,58.90
2018-10-17T07:42:35.089Z,59.20
2018-10-17T07:45:22.391Z,59.10
2018-10-17T08:00:34.432Z,59.00
2018-10-17T08:27:41.121Z,58.70
2018-10-17T08:30:42.716Z,58.00
2018-10-17T08:33:33.212Z,58.10
2018-10-17T08:39:44.750Z,58.00
2018-10-17T08:42:52.017Z,57.70
2018-10-17T08:45:57.530Z,57.90
2018-10-17T08:48:48.525Z,57.60
2018-10-17T08:55:14.098Z,57.20
2018-10-17T09:01:35.440Z,56.90
2018-10-17T09:18:33.856Z,57.10
2018-10-17T09:21:39.846Z,56.30
2018-10-17T09:24:31.829Z,55.80
2018-10-17T09:33:15.506Z,55.30
2018-10-17T09:50:12.403Z,54.60
2018-10-17T09:57:24.244Z,54.50
2018-10-17T10:01:12.871Z,54.00
2018-10-17T10:13:00.486Z,53.30
2018-10-17T10:24:12.957Z,52.90
2018-10-17T10:31:41.243Z,52.40
2018-10-17T10:34:28.710Z,52.30
2018-10-17T11:49:39.375Z,50.30
2018-10-17T11:52:14.155Z,43.40
2018-10-17T11:54:48.940Z,41.30
2018-10-17T11:57:22.273Z,40.20
2018-10-17T11:59:58.141Z,39.00
2018-10-17T12:02:32.213Z,38.80
2018-10-17T12:05:09.569Z,37.50
2018-10-17T12:07:44.649Z,36.40
2018-10-17T12:10:25.929Z,35.70
2018-10-17T12:13:01.489Z,34.80
2018-10-17T12:15:35.106Z,34.30
2018-10-17T12:18:10.386Z,33.70
2018-10-17T12:20:43.639Z,33.70
2018-10-17T12:23:18.299Z,32.50
2018-10-17T12:28:45.445Z,31.50
2018-10-17T12:31:17.808Z,31.20
2018-10-17T12:33:49.381Z,31.30
2018-10-17T12:36:21.586Z,30.70
2018-10-17T12:38:52.633Z,30.40
2018-10-17T12:41:24.031Z,30.40
2018-10-17T12:43:57.981Z,30.40
2018-10-17T12:46:29.847Z,30.20
2018-10-17T12:49:01.576Z,30.10
2018-10-17T12:51:37.652Z,30.00
2018-10-17T12:54:08.935Z,29.90
2018-10-17T12:56:40.848Z,29.80
2018-10-17T12:59:18.879Z,29.70
2018-10-17T13:01:53.646Z,29.50
2018-10-17T13:04:26.605Z,29.40
2018-10-17T13:06:57.321Z,29.40
2018-10-17T13:09:31.030Z,29.40
2018-10-17T13:12:03.892Z,29.30
2018-10-17T13:14:35.936Z,29.40
2018-10-17T13:17:07.153Z,29.20
2018-10-17T13:19:48.274Z,29.30
2018-10-17T13:22:40.327Z,29.40
2018-10-17T13:25:10.583Z,29.40
2018-10-17T13:27:39.839Z,30.10
2018-10-17T13:30:09.286Z,30.70
2018-10-17T13:32:40.765Z,31.30
2018-10-17T13:35:11.387Z,32.20
2018-10-17T13:37:40.797Z,33.00
2018-10-17T13:40:10.498Z,33.90
2018-10-17T13:42:40.124Z,34.60
2018-10-17T13:45:09.927Z,35.20
2018-10-17T13:47:46.867Z,35.40
2018-10-17T13:50:19.168Z,35.80
2018-10-17T13:52:50.251Z,36.20
2018-10-17T13:55:26.807Z,36.50
2018-10-17T13:57:58.788Z,36.80
2018-10-17T14:00:28.350Z,37.30
2018-10-17T14:02:58.854Z,37.50
2018-10-17T16:29:03.626Z,38.90
2018-10-17T18:32:17.274Z,48.00
2018-10-17T18:34:56.367Z,52.50
2018-10-17T18:37:29.290Z,52.20
2018-10-17T18:40:12.422Z,52.30
2018-10-17T19:22:23.683Z,52.00
2018-10-17T19:25:04.679Z,51.60
2018-10-17T19:27:48.498Z,52.30
2018-10-17T19:30:22.778Z,52.80
2018-10-17T20:54:24.058Z,52.80
2018-10-17T20:57:01.652Z,53.80
2018-10-17T20:59:54.409Z,54.10
2018-10-17T21:02:23.258Z,54.50
2018-10-17T21:05:30.660Z,54.80
2018-10-17T21:08:13.886Z,54.90
2018-10-17T21:13:54.243Z,55.30
2018-10-17T21:16:24.322Z,55.60
2018-10-17T21:18:59.534Z,56.10
2018-10-17T21:21:33.090Z,56.30
2018-10-17T21:24:05.235Z,56.40
2018-10-17T21:26:42.750Z,56.60
2018-10-17T21:29:12.639Z,56.70
2018-10-17T21:56:41.696Z,57.10
2018-10-17T21:59:18.035Z,56.30
2018-10-17T22:02:04.487Z,56.30
2018-10-17T22:04:33.112Z,56.70
2018-10-17T22:07:14.226Z,57.10
2018-10-17T22:09:43.767Z,57.40
2018-10-17T22:15:09.684Z,58.10
2018-10-17T22:17:52.505Z,58.00
2018-10-17T22:23:03.648Z,58.50
2018-10-17T22:25:36.954Z,59.10
2018-10-17T22:28:18.054Z,58.70
2018-10-17T22:33:05.460Z,58.00
2018-10-17T22:35:34.050Z,58.80
2018-10-17T22:38:06.913Z,59.00
2018-10-17T22:40:37.837Z,59.00
2018-10-17T22:57:02.597Z,59.10
2018-10-17T22:59:38.357Z,58.50
2018-10-17T23:02:16.262Z,58.70
2018-10-17T23:04:45.215Z,59.10
2018-10-17T23:07:14.547Z,59.20
2018-10-17T23:09:43.378Z,59.30
2018-10-17T23:12:12.280Z,59.40
2018-10-17T23:14:40.794Z,59.70
2018-10-17T23:17:09.370Z,59.90
2018-10-17T23:19:38.344Z,60.00
2018-10-17T23:22:07.312Z,60.20
2018-10-17T23:24:44.096Z,60.40
2018-10-17T23:27:12.712Z,60.40
2018-10-17T23:29:42.672Z,60.50
2018-10-17T23:34:50.669Z,60.80
2018-10-17T23:37:19.265Z,60.80
2018-10-17T23:39:47.768Z,60.80
2018-10-17T23:44:55.619Z,60.90
2018-10-17T23:47:24.149Z,60.90
2018-10-17T23:49:53.149Z,60.90
2018-10-17T23:52:22.706Z,61.10
2018-10-17T23:54:55.221Z,61.20
2018-10-17T23:57:26.101Z,61.50
2018-10-17T23:59:55.253Z,61.60
